createdAt,value
2017-05-24T00:00:47.770Z,0
2017-05-24T00:01:47.819Z,0
2017-05-24T00:02:47.871Z,0
2017-05-24T00:03:47.928Z,0
2017-05-24T00:04:47.983Z,0
2017-05-24T00:05:48.039Z,0
2017-05-24T00:06:48.089Z,0
2017-05-24T00:07:47.841Z,0
2017-05-24T00:08:48.200Z,0
2017-05-24T00:09:48.254Z,0
2017-05-24T00:10:48.309Z,0
2017-05-24T00:11:48.362Z,0
2017-05-24T00:12:48.424Z,0
2017-05-24T00:13:48.172Z,0
2017-05-24T00:14:48.531Z,0
2017-05-24T00:15:48.587Z,0
2017-05-24T00:16:48.632Z,0
2017-05-24T00:17:48.691Z,0
2017-05-24T00:18:48.744Z,0
2017-05-24T00:19:48.804Z,0
2017-05-24T00:20:48.850Z,0
2017-05-24T00:21:48.904Z,0
2017-05-24T00:22:48.656Z,0
2017-05-24T00:23:49.014Z,0
2017-05-24T00:24:49.069Z,0
2017-05-24T00:25:49.123Z,0
2017-05-24T00:26:49.178Z,0
2017-05-24T00:27:49.235Z,0
2017-05-24T00:28:49.496Z,0
2017-05-24T00:29:49.339Z,0
2017-05-24T00:30:49.397Z,0
2017-05-24T00:31:49.450Z,0
2017-05-24T00:32:49.507Z,0
2017-05-24T00:33:49.564Z,0
2017-05-24T00:34:49.815Z,0
2017-05-24T00:35:49.662Z,0
2017-05-24T00:36:49.715Z,0
2017-05-24T00:37:49.775Z,0
2017-05-24T00:38:49.828Z,0
2017-05-24T00:39:49.884Z,0
2017-05-24T00:40:49.938Z,0
2017-05-24T00:41:49.689Z,0
2017-05-24T00:42:49.743Z,0
2017-05-24T00:43:49.802Z,0
2017-05-24T00:44:49.852Z,0
2017-05-24T00:45:50.207Z,0
2017-05-24T00:46:50.265Z,0
2017-05-24T00:47:50.317Z,0
2017-05-24T00:48:50.372Z,0
2017-05-24T00:49:50.125Z,0
2017-05-24T00:50:50.474Z,0
2017-05-24T00:51:50.530Z,0
2017-05-24T00:52:50.290Z,0
2017-05-24T00:53:50.642Z,0
2017-05-24T00:54:50.701Z,0
2017-05-24T00:55:50.748Z,0
2017-05-24T00:56:50.803Z,0
2017-05-24T00:57:50.859Z,0
2017-05-24T00:58:50.916Z,0
2017-05-24T00:59:50.969Z,0
2017-05-24T01:00:51.022Z,0
2017-05-24T01:01:51.079Z,0
2017-05-24T01:02:51.130Z,0
2017-05-24T01:03:51.187Z,0
2017-05-24T01:04:51.457Z,0
2017-05-24T01:05:51.502Z,0
2017-05-24T01:06:51.343Z,0
2017-05-24T01:07:51.404Z,0
2017-05-24T01:08:51.456Z,0
2017-05-24T01:09:51.515Z,0
2017-05-24T01:10:51.571Z,0
2017-05-24T01:11:51.621Z,0
2017-05-24T01:12:51.669Z,0
2017-05-24T01:13:51.724Z,0
2017-05-24T01:14:51.786Z,0
2017-05-24T01:15:51.837Z,0
2017-05-24T01:16:51.890Z,0
2017-05-24T01:17:51.942Z,0
2017-05-24T01:18:51.400Z,0
2017-05-24T01:19:51.749Z,0
2017-05-24T01:20:51.801Z,0
2017-05-24T01:21:51.859Z,0
2017-05-24T01:22:52.218Z,0
2017-05-24T01:23:52.271Z,0
2017-05-24T01:24:52.326Z,0
2017-05-24T01:25:52.074Z,0
2017-05-24T01:26:52.427Z,0
2017-05-24T01:27:52.486Z,0
2017-05-24T01:28:52.541Z,0
2017-05-24T01:29:52.605Z,0
2017-05-24T01:30:52.646Z,0
2017-05-24T01:31:52.905Z,0
2017-05-24T01:32:52.451Z,0
2017-05-24T01:33:52.813Z,0
2017-05-24T01:34:52.867Z,0
2017-05-24T01:35:52.320Z,0
2017-05-24T01:36:52.975Z,0
2017-05-24T01:37:53.031Z,0
2017-05-24T01:38:53.085Z,0
2017-05-24T01:39:53.137Z,0
2017-05-24T01:41:06.283Z,0
2017-05-24T01:41:53.454Z,0
2017-05-24T01:42:53.005Z,0
2017-05-24T01:43:53.358Z,0
2017-05-24T01:44:53.410Z,0
2017-05-24T01:45:53.458Z,0
2017-05-24T01:46:53.518Z,0
2017-05-24T01:47:53.571Z,0
2017-05-24T01:48:53.626Z,0
2017-05-24T01:49:53.681Z,0
2017-05-24T01:50:53.733Z,0
2017-05-24T01:51:53.796Z,0
2017-05-24T01:52:53.841Z,0
2017-05-24T01:53:53.961Z,0
2017-05-24T01:54:53.950Z,0
2017-05-24T01:55:54.007Z,0
2017-05-24T01:56:54.059Z,0
2017-05-24T01:57:54.118Z,0
2017-05-24T01:58:54.173Z,0
2017-05-24T01:59:54.216Z,0
2017-05-24T02:00:54.272Z,0
2017-05-24T02:01:54.330Z,0
2017-05-24T02:02:54.396Z,0
2017-05-24T02:03:54.435Z,0
2017-05-24T02:04:54.491Z,0
2017-05-24T02:05:54.549Z,0
2017-05-24T02:06:54.307Z,0
2017-05-24T02:07:54.657Z,0
2017-05-24T02:08:54.712Z,0
2017-05-24T02:09:54.770Z,0
2017-05-24T02:10:54.817Z,0
2017-05-24T02:12:08.246Z,0
2017-05-24T02:13:08.570Z,0
2017-05-24T02:13:54.978Z,0
2017-05-24T02:14:55.039Z,0
2017-05-24T02:15:55.083Z,0
2017-05-24T02:16:55.145Z,0
2017-05-24T02:18:08.537Z,0
2017-05-24T02:19:09.885Z,0
2017-05-24T02:19:55.311Z,0
2017-05-24T02:20:55.358Z,0
2017-05-24T02:21:55.416Z,0
2017-05-24T02:22:55.471Z,0
2017-05-24T02:23:55.523Z,0
2017-05-24T02:24:55.578Z,0
2017-05-24T02:25:55.630Z,0
2017-05-24T02:26:55.384Z,0
2017-05-24T02:27:55.745Z,0
2017-05-24T02:28:55.795Z,0
2017-05-24T02:29:55.855Z,0
2017-05-24T02:30:55.908Z,0
2017-05-24T02:31:55.965Z,0
2017-05-24T02:32:56.007Z,0
2017-05-24T02:33:56.061Z,0
2017-05-24T02:34:56.116Z,0
2017-05-24T02:35:56.174Z,0
2017-05-24T02:36:56.227Z,0
2017-05-24T02:37:56.287Z,0
2017-05-24T02:38:56.332Z,0
2017-05-24T02:39:56.390Z,0
2017-05-24T02:40:56.141Z,0
2017-05-24T02:41:56.495Z,0
2017-05-24T02:42:56.554Z,0
2017-05-24T02:43:56.509Z,0
2017-05-24T02:44:56.662Z,0
2017-05-24T02:45:56.713Z,0
2017-05-24T02:46:56.774Z,0
2017-05-24T02:47:56.723Z,0
2017-05-24T02:48:56.780Z,0
2017-05-24T02:49:56.934Z,0
2017-05-24T02:50:56.986Z,0
2017-05-24T02:51:56.439Z,0
2017-05-24T02:52:57.295Z,0
2017-05-24T02:53:57.360Z,0
2017-05-24T02:54:57.209Z,0
2017-05-24T02:55:57.257Z,0
2017-05-24T02:56:57.010Z,0
2017-05-24T02:57:57.272Z,0
2017-05-24T02:58:57.119Z,0
2017-05-24T02:59:57.471Z,0
2017-05-24T03:00:57.227Z,0
2017-05-24T03:01:57.581Z,0
2017-05-24T03:02:57.645Z,0
2017-05-24T03:03:57.698Z,0
2017-05-24T03:04:57.785Z,0
2017-05-24T03:05:57.798Z,0
2017-05-24T03:06:57.857Z,0
2017-05-24T03:07:57.908Z,0
2017-05-24T03:08:57.960Z,0
2017-05-24T03:09:57.713Z,0
2017-05-24T03:10:57.769Z,0
2017-05-24T03:11:58.131Z,0
2017-05-24T03:12:57.878Z,0
2017-05-24T03:13:58.229Z,0
2017-05-24T03:14:58.286Z,0
2017-05-24T03:15:58.336Z,0
2017-05-24T03:16:58.398Z,0
2017-05-24T03:17:58.454Z,0
2017-05-24T03:18:58.507Z,0
2017-05-24T03:19:58.558Z,4
2017-05-24T03:20:58.312Z,4
2017-05-24T03:21:58.667Z,4
2017-05-24T03:22:58.729Z,4
2017-05-24T03:23:58.779Z,8
2017-05-24T03:24:58.832Z,4
2017-05-24T03:25:58.882Z,4
2017-05-24T03:26:58.935Z,8
2017-05-24T03:27:58.692Z,8
2017-05-24T03:28:59.044Z,8
2017-05-24T03:29:59.302Z,8
2017-05-24T03:30:59.156Z,16
2017-05-24T03:31:59.206Z,16
2017-05-24T03:32:59.263Z,12
2017-05-24T03:33:59.314Z,16
2017-05-24T03:34:59.379Z,16
2017-05-24T03:35:59.425Z,12
2017-05-24T03:36:59.176Z,12
2017-05-24T03:37:59.534Z,16
2017-05-24T03:38:59.588Z,20
2017-05-24T03:39:59.643Z,16
2017-05-24T03:40:59.695Z,16
2017-05-24T03:41:59.751Z,20
2017-05-24T03:42:59.814Z,20
2017-05-24T03:43:59.857Z,32
2017-05-24T03:44:59.915Z,44
2017-05-24T03:45:59.964Z,44
2017-05-24T03:47:00.023Z,44
2017-05-24T03:48:00.073Z,52
2017-05-24T03:49:00.132Z,52
2017-05-24T03:50:00.191Z,40
2017-05-24T03:51:00.242Z,40
2017-05-24T03:52:00.289Z,44
2017-05-24T03:53:00.349Z,56
2017-05-24T03:54:00.397Z,64
2017-05-24T03:55:00.455Z,60
2017-05-24T03:56:00.509Z,52
2017-05-24T03:57:00.563Z,40
2017-05-24T03:58:00.622Z,36
2017-05-24T03:59:00.369Z,40
2017-05-24T04:00:00.728Z,40
2017-05-24T04:01:00.773Z,48
2017-05-24T04:02:00.839Z,48
2017-05-24T04:03:00.886Z,40
2017-05-24T04:04:00.941Z,64
2017-05-24T04:05:00.699Z,64
2017-05-24T04:06:00.746Z,56
2017-05-24T04:07:01.101Z,60
2017-05-24T04:08:00.861Z,64
2017-05-24T04:09:00.912Z,76
2017-05-24T04:10:00.965Z,76
2017-05-24T04:11:01.016Z,64
2017-05-24T04:12:01.069Z,52
2017-05-24T04:13:01.127Z,48
2017-05-24T04:14:01.480Z,48
2017-05-24T04:15:01.539Z,52
2017-05-24T04:16:01.592Z,52
2017-05-24T04:17:01.648Z,56
2017-05-24T04:18:01.394Z,76
2017-05-24T04:19:01.755Z,96
2017-05-24T04:20:01.814Z,112
2017-05-24T04:21:01.859Z,124
2017-05-24T04:22:01.915Z,144
2017-05-24T04:23:01.967Z,168
2017-05-24T04:24:02.028Z,156
2017-05-24T04:25:02.080Z,124
2017-05-24T04:26:02.128Z,108
2017-05-24T04:27:02.186Z,96
2017-05-24T04:28:02.240Z,96
2017-05-24T04:29:02.299Z,100
2017-05-24T04:30:02.345Z,108
2017-05-24T04:31:02.405Z,112
2017-05-24T04:32:02.461Z,112
2017-05-24T04:33:02.507Z,108
2017-05-24T04:34:02.562Z,120
2017-05-24T04:35:02.625Z,116
2017-05-24T04:36:02.668Z,152
2017-05-24T04:37:02.729Z,200
2017-05-24T04:38:02.481Z,256
2017-05-24T04:39:02.542Z,292
2017-05-24T04:40:02.590Z,280
2017-05-24T04:41:02.949Z,248
2017-05-24T04:42:02.997Z,256
2017-05-24T04:43:02.747Z,284
2017-05-24T04:44:03.102Z,292
2017-05-24T04:45:03.156Z,256
2017-05-24T04:46:03.214Z,212
2017-05-24T04:47:02.970Z,232
2017-05-24T04:48:03.324Z,252
2017-05-24T04:49:03.378Z,296
2017-05-24T04:50:03.434Z,280
2017-05-24T04:51:03.482Z,284
2017-05-24T04:52:03.535Z,328
2017-05-24T04:53:03.589Z,296
2017-05-24T04:54:03.650Z,248
2017-05-24T04:55:03.699Z,256
2017-05-24T04:56:03.453Z,268
2017-05-24T04:57:03.504Z,312
2017-05-24T04:58:03.568Z,384
2017-05-24T04:59:03.613Z,392
2017-05-24T05:00:03.669Z,308
2017-05-24T05:01:03.728Z,252
2017-05-24T05:02:04.298Z,272
2017-05-24T05:03:04.137Z,336
2017-05-24T05:04:04.189Z,360
2017-05-24T05:05:04.239Z,288
2017-05-24T05:06:04.293Z,256
2017-05-24T05:07:04.347Z,272
2017-05-24T05:08:04.101Z,316
2017-05-24T05:09:04.461Z,392
2017-05-24T05:10:04.515Z,456
2017-05-24T05:11:04.568Z,476
2017-05-24T05:12:04.623Z,468
2017-05-24T05:13:04.681Z,412
2017-05-24T05:14:04.731Z,404
2017-05-24T05:15:04.789Z,472
2017-05-24T05:16:04.840Z,532
2017-05-24T05:17:04.889Z,520
2017-05-24T05:18:04.948Z,420
2017-05-24T05:19:05.000Z,308
2017-05-24T05:20:04.751Z,312
2017-05-24T05:21:04.806Z,364
2017-05-24T05:22:05.161Z,448
2017-05-24T05:23:04.617Z,548
2017-05-24T05:24:04.969Z,580
2017-05-24T05:25:05.022Z,552
2017-05-24T05:26:05.150Z,612
2017-05-24T05:27:05.439Z,612
2017-05-24T05:28:05.488Z,504
2017-05-24T05:29:05.544Z,424
2017-05-24T05:30:05.596Z,384
2017-05-24T05:31:05.651Z,388
2017-05-24T05:32:05.703Z,380
2017-05-24T05:33:05.763Z,404
2017-05-24T05:34:05.814Z,400
2017-05-24T05:35:05.568Z,372
2017-05-24T05:36:05.922Z,384
2017-05-24T05:37:05.983Z,456
2017-05-24T05:38:06.030Z,380
2017-05-24T05:39:06.085Z,336
2017-05-24T05:40:06.138Z,312
2017-05-24T05:41:06.194Z,268
2017-05-24T05:42:06.250Z,288
2017-05-24T05:43:06.303Z,316
2017-05-24T05:44:06.355Z,336
2017-05-24T05:45:06.414Z,352
2017-05-24T05:46:06.499Z,360
2017-05-24T05:47:06.521Z,424
2017-05-24T05:48:06.573Z,500
2017-05-24T05:49:06.631Z,512
2017-05-24T05:50:06.681Z,472
2017-05-24T05:51:06.732Z,496
2017-05-24T05:52:06.787Z,588
2017-05-24T05:53:06.845Z,556
2017-05-24T05:54:06.896Z,484
2017-05-24T05:55:06.967Z,540
2017-05-24T05:56:07.010Z,552
2017-05-24T05:57:07.063Z,640
2017-05-24T05:58:07.118Z,676
2017-05-24T05:59:07.172Z,880
2017-05-24T06:00:07.220Z,1004
2017-05-24T06:01:07.275Z,868
2017-05-24T06:02:07.327Z,856
2017-05-24T06:03:07.390Z,900
2017-05-24T06:04:07.141Z,956
2017-05-24T06:05:07.196Z,936
2017-05-24T06:06:07.250Z,1060
2017-05-24T06:07:07.603Z,1088
2017-05-24T06:08:07.658Z,940
2017-05-24T06:09:07.710Z,936
2017-05-24T06:10:07.766Z,988
2017-05-24T06:11:07.516Z,1016
2017-05-24T06:12:07.568Z,1340
2017-05-24T06:13:07.930Z,1172
2017-05-24T06:14:07.980Z,1280
2017-05-24T06:15:07.736Z,1288
2017-05-24T06:16:08.092Z,1304
2017-05-24T06:17:08.149Z,1308
2017-05-24T06:18:08.197Z,1444
2017-05-24T06:19:08.259Z,1504
2017-05-24T06:20:08.325Z,1736
2017-05-24T06:21:08.362Z,1608
2017-05-24T06:22:07.813Z,1852
2017-05-24T06:23:08.473Z,1108
2017-05-24T06:24:08.589Z,1192
2017-05-24T06:25:08.581Z,1108
2017-05-24T06:26:08.333Z,828
2017-05-24T06:27:08.388Z,728
2017-05-24T06:28:08.752Z,772
2017-05-24T06:29:08.802Z,1128
2017-05-24T06:30:08.549Z,1032
2017-05-24T06:31:08.604Z,808
2017-05-24T06:32:08.965Z,716
2017-05-24T06:33:09.020Z,876
2017-05-24T06:34:08.769Z,720
2017-05-24T06:35:09.127Z,532
2017-05-24T06:36:08.876Z,456
2017-05-24T06:37:09.240Z,864
2017-05-24T06:38:09.285Z,1256
2017-05-24T06:39:09.344Z,1116
2017-05-24T06:40:09.093Z,980
2017-05-24T06:41:09.449Z,1084
2017-05-24T06:42:09.506Z,1060
2017-05-24T06:43:09.257Z,1024
2017-05-24T06:44:09.610Z,932
2017-05-24T06:45:09.666Z,1388
2017-05-24T06:46:09.424Z,2020
2017-05-24T06:47:09.780Z,2600
2017-05-24T06:48:09.838Z,1984
2017-05-24T06:49:09.889Z,1580
2017-05-24T06:50:09.937Z,1092
2017-05-24T06:51:09.692Z,1412
2017-05-24T06:52:09.749Z,1200
2017-05-24T06:53:10.108Z,1276
2017-05-24T06:54:10.160Z,1280
2017-05-24T06:55:10.216Z,1400
2017-05-24T06:56:10.269Z,1400
2017-05-24T06:57:10.318Z,1204
2017-05-24T06:58:10.075Z,1336
2017-05-24T06:59:10.133Z,1128
2017-05-24T07:00:10.493Z,1168
2017-05-24T07:01:10.543Z,1484
2017-05-24T07:02:10.293Z,1164
2017-05-24T07:03:10.648Z,1216
2017-05-24T07:04:10.709Z,1468
2017-05-24T07:05:10.758Z,1164
2017-05-24T07:06:10.507Z,1408
2017-05-24T07:07:10.870Z,1504
2017-05-24T07:08:10.921Z,1628
2017-05-24T07:09:10.977Z,1300
2017-05-24T07:10:10.725Z,1188
2017-05-24T07:11:11.084Z,972
2017-05-24T07:12:10.835Z,920
2017-05-24T07:13:11.193Z,1204
2017-05-24T07:14:10.946Z,1700
2017-05-24T07:15:11.303Z,1464
2017-05-24T07:16:11.363Z,1276
2017-05-24T07:17:11.409Z,1252
2017-05-24T07:18:11.468Z,1156
2017-05-24T07:19:11.520Z,1396
2017-05-24T07:20:11.579Z,1352
2017-05-24T07:21:11.624Z,1372
2017-05-24T07:22:11.379Z,1688
2017-05-24T07:23:11.739Z,1332
2017-05-24T07:24:11.794Z,1356
2017-05-24T07:25:11.845Z,1724
2017-05-24T07:26:11.901Z,1164
2017-05-24T07:27:11.958Z,1080
2017-05-24T07:28:12.014Z,1168
2017-05-24T07:29:12.067Z,1208
2017-05-24T07:30:11.813Z,956
2017-05-24T07:31:12.175Z,1100
2017-05-24T07:32:12.231Z,1376
2017-05-24T07:33:11.679Z,1976
2017-05-24T07:34:12.034Z,1968
2017-05-24T07:35:12.091Z,1796
2017-05-24T07:36:12.445Z,1708
2017-05-24T07:37:12.509Z,1736
2017-05-24T07:38:12.556Z,2052
2017-05-24T07:39:12.617Z,1884
2017-05-24T07:40:12.363Z,1516
2017-05-24T07:41:12.731Z,1224
2017-05-24T07:42:12.775Z,1092
2017-05-24T07:43:12.533Z,1124
2017-05-24T07:44:12.883Z,1104
2017-05-24T07:45:12.638Z,1080
2017-05-24T07:46:12.687Z,996
2017-05-24T07:47:13.045Z,992
2017-05-24T07:48:12.800Z,1040
2017-05-24T07:49:12.856Z,1128
2017-05-24T07:50:13.212Z,956
2017-05-24T07:51:12.960Z,1020
2017-05-24T07:52:13.316Z,1032
2017-05-24T07:53:13.378Z,1316
2017-05-24T07:54:13.124Z,1788
2017-05-24T07:55:13.483Z,2292
2017-05-24T07:56:13.534Z,2688
2017-05-24T07:57:13.290Z,2584
2017-05-24T07:58:13.650Z,2892
2017-05-24T07:59:13.398Z,2876
2017-05-24T08:00:13.453Z,3460
2017-05-24T08:01:13.805Z,4268
2017-05-24T08:02:13.559Z,4244
2017-05-24T08:03:13.623Z,3432
2017-05-24T08:04:13.975Z,3668
2017-05-24T08:05:14.033Z,3252
2017-05-24T08:06:14.084Z,3716
2017-05-24T08:07:14.137Z,6320
2017-05-24T08:08:14.192Z,5944
2017-05-24T08:09:14.250Z,5716
2017-05-24T08:10:14.304Z,5876
2017-05-24T08:11:14.356Z,4920
2017-05-24T08:12:14.409Z,5064
2017-05-24T08:13:14.473Z,4448
2017-05-24T08:14:14.218Z,3936
2017-05-24T08:15:14.577Z,3592
2017-05-24T08:16:14.631Z,3348
2017-05-24T08:17:14.691Z,4628
2017-05-24T08:18:14.744Z,4360
2017-05-24T08:19:14.797Z,5484
2017-05-24T08:20:14.847Z,5556
2017-05-24T08:21:14.905Z,5648
2017-05-24T08:22:14.962Z,3952
2017-05-24T08:23:15.017Z,3156
2017-05-24T08:24:15.073Z,2632
2017-05-24T08:25:15.125Z,2916
2017-05-24T08:26:15.184Z,3048
2017-05-24T08:27:15.245Z,3664
2017-05-24T08:28:14.989Z,5060
2017-05-24T08:29:15.346Z,4752
2017-05-24T08:30:15.399Z,3896
2017-05-24T08:31:15.459Z,3880
2017-05-24T08:32:15.509Z,5028
2017-05-24T08:33:15.566Z,5364
2017-05-24T08:34:15.626Z,4896
2017-05-24T08:35:15.389Z,3840
2017-05-24T08:36:15.738Z,3120
2017-05-24T08:37:15.792Z,2428
2017-05-24T08:38:15.845Z,2592
2017-05-24T08:39:15.901Z,3572
2017-05-24T08:40:15.950Z,4944
2017-05-24T08:41:16.013Z,4208
2017-05-24T08:42:16.066Z,4584
2017-05-24T08:43:16.123Z,7408
2017-05-24T08:44:15.875Z,7680
2017-05-24T08:45:16.233Z,5824
2017-05-24T08:46:16.289Z,4492
2017-05-24T08:47:16.040Z,3220
2017-05-24T08:48:16.400Z,2852
2017-05-24T08:49:16.150Z,3320
2017-05-24T08:50:16.510Z,3876
2017-05-24T08:51:16.260Z,4000
2017-05-24T08:52:16.634Z,4408
2017-05-24T08:53:16.674Z,3296
2017-05-24T08:54:16.730Z,2772
2017-05-24T08:55:16.785Z,2524
2017-05-24T08:56:16.845Z,2692
2017-05-24T08:57:16.894Z,2624
2017-05-24T08:58:16.648Z,2668
2017-05-24T08:59:17.008Z,2736
2017-05-24T09:00:16.761Z,3552
2017-05-24T09:01:17.118Z,4284
2017-05-24T09:02:16.874Z,3376
2017-05-24T09:03:17.229Z,3032
2017-05-24T09:04:17.284Z,3572
2017-05-24T09:05:17.347Z,2352
2017-05-24T09:06:17.396Z,2236
2017-05-24T09:07:17.454Z,2696
2017-05-24T09:08:17.508Z,3412
2017-05-24T09:09:17.560Z,4200
2017-05-24T09:10:17.619Z,4208
2017-05-24T09:11:17.374Z,3692
2017-05-24T09:12:17.733Z,3296
2017-05-24T09:13:17.485Z,3084
2017-05-24T09:14:17.540Z,2708
2017-05-24T09:15:17.591Z,2648
2017-05-24T09:16:17.649Z,3060
2017-05-24T09:17:18.005Z,2988
2017-05-24T09:18:18.064Z,3072
2017-05-24T09:19:18.123Z,3920
2017-05-24T09:20:18.175Z,3536
2017-05-24T09:21:18.233Z,3348
2017-05-24T09:22:18.285Z,3928
2017-05-24T09:23:18.340Z,6980
2017-05-24T09:24:18.404Z,6752
2017-05-24T09:25:18.454Z,6848
2017-05-24T09:26:18.514Z,10792
2017-05-24T09:27:18.567Z,7416
2017-05-24T09:28:18.627Z,5048
2017-05-24T09:29:18.377Z,3172
2017-05-24T09:30:18.432Z,3752
2017-05-24T09:31:18.787Z,4312
2017-05-24T09:32:18.843Z,3640
2017-05-24T09:33:18.599Z,3672
2017-05-24T09:34:18.957Z,3304
2017-05-24T09:35:19.011Z,3384
2017-05-24T09:36:19.072Z,3596
2017-05-24T09:37:19.121Z,3252
2017-05-24T09:38:19.178Z,3144
2017-05-24T09:39:19.231Z,4576
2017-05-24T09:40:19.292Z,5936
2017-05-24T09:41:19.345Z,5040
2017-05-24T09:42:19.406Z,3620
2017-05-24T09:43:19.456Z,3072
2017-05-24T09:44:19.517Z,2920
2017-05-24T09:45:19.574Z,2944
2017-05-24T09:46:19.325Z,3952
2017-05-24T09:47:19.684Z,5404
2017-05-24T09:48:19.738Z,4624
2017-05-24T09:49:19.798Z,5576
2017-05-24T09:50:19.849Z,5412
2017-05-24T09:51:19.902Z,5348
2017-05-24T09:52:19.961Z,5316
2017-05-24T09:53:20.016Z,6024
2017-05-24T09:54:20.075Z,6380
2017-05-24T09:55:20.128Z,5108
2017-05-24T09:56:20.183Z,4620
2017-05-24T09:57:19.940Z,3520
2017-05-24T09:58:20.299Z,4168
2017-05-24T09:59:20.351Z,4976
2017-05-24T10:00:20.407Z,4512
2017-05-24T10:01:20.466Z,5404
2017-05-24T10:02:20.218Z,6764
2017-05-24T10:03:20.575Z,5580
2017-05-24T10:04:20.637Z,4272
2017-05-24T10:05:20.389Z,4056
2017-05-24T10:06:20.744Z,3700
2017-05-24T10:07:20.801Z,2932
2017-05-24T10:08:20.855Z,3376
2017-05-24T10:09:20.926Z,5412
2017-05-24T10:10:20.665Z,5280
2017-05-24T10:11:21.025Z,4164
2017-05-24T10:12:21.090Z,4240
2017-05-24T10:13:21.138Z,5440
2017-05-24T10:14:21.199Z,6196
2017-05-24T10:15:21.247Z,5884
2017-05-24T10:16:21.320Z,6360
2017-05-24T10:17:21.358Z,6172
2017-05-24T10:18:21.120Z,5908
2017-05-24T10:19:21.478Z,5284
2017-05-24T10:20:21.224Z,5304
2017-05-24T10:21:21.587Z,4936
2017-05-24T10:22:21.640Z,4392
2017-05-24T10:23:21.702Z,3420
2017-05-24T10:24:21.455Z,2904
2017-05-24T10:25:21.812Z,2952
2017-05-24T10:26:21.864Z,3268
2017-05-24T10:27:21.924Z,3592
2017-05-24T10:28:21.975Z,3400
2017-05-24T10:29:22.043Z,3148
2017-05-24T10:30:22.092Z,3584
2017-05-24T10:31:22.148Z,4376
2017-05-24T10:32:22.205Z,5164
2017-05-24T10:33:22.258Z,5056
2017-05-24T10:34:22.317Z,4764
2017-05-24T10:35:22.367Z,4932
2017-05-24T10:36:22.425Z,4848
2017-05-24T10:37:22.483Z,5264
2017-05-24T10:38:22.541Z,5092
2017-05-24T10:39:22.597Z,6004
2017-05-24T10:40:22.347Z,5260
2017-05-24T10:41:22.709Z,6772
2017-05-24T10:42:22.763Z,5876
2017-05-24T10:43:22.827Z,5680
2017-05-24T10:44:22.575Z,4820
2017-05-24T10:45:22.939Z,4732
2017-05-24T10:46:22.986Z,5348
2017-05-24T10:47:22.743Z,5884
2017-05-24T10:48:22.802Z,4404
2017-05-24T10:49:23.161Z,4724
2017-05-24T10:50:23.219Z,5796
2017-05-24T10:51:23.266Z,5288
2017-05-24T10:52:23.327Z,5356
2017-05-24T10:53:23.386Z,5212
2017-05-24T10:54:23.464Z,5716
2017-05-24T10:55:23.497Z,4672
2017-05-24T10:56:23.551Z,4756
2017-05-24T10:57:23.607Z,6912
2017-05-24T10:58:23.662Z,8372
2017-05-24T10:59:23.721Z,6980
2017-05-24T11:00:23.775Z,7760
2017-05-24T11:01:23.833Z,8168
2017-05-24T11:02:23.884Z,7024
2017-05-24T11:03:23.947Z,8064
2017-05-24T11:04:24.005Z,6180
2017-05-24T11:05:24.061Z,5892
2017-05-24T11:06:23.813Z,6312
2017-05-24T11:07:23.870Z,6500
2017-05-24T11:08:23.931Z,7384
2017-05-24T11:09:24.280Z,7188
2017-05-24T11:10:24.341Z,6680
2017-05-24T11:11:24.394Z,7320
2017-05-24T11:12:24.158Z,7916
2017-05-24T11:13:24.519Z,7432
2017-05-24T11:14:24.567Z,6740
2017-05-24T11:15:24.320Z,5348
2017-05-24T11:16:24.680Z,5292
2017-05-24T11:17:24.438Z,4768
2017-05-24T11:18:24.488Z,5736
2017-05-24T11:19:24.546Z,6408
2017-05-24T11:20:24.903Z,6492
2017-05-24T11:21:24.967Z,8012
2017-05-24T11:22:25.018Z,7200
2017-05-24T11:23:25.076Z,6752
2017-05-24T11:24:25.138Z,4864
2017-05-24T11:25:25.189Z,7220
2017-05-24T11:26:25.243Z,7196
2017-05-24T11:27:25.306Z,4596
2017-05-24T11:28:25.380Z,3800
2017-05-24T11:29:25.420Z,5528
2017-05-24T11:30:25.473Z,5720
2017-05-24T11:31:25.532Z,5016
2017-05-24T11:32:25.587Z,4720
2017-05-24T11:33:25.647Z,4272
2017-05-24T11:34:25.701Z,5580
2017-05-24T11:35:25.756Z,3040
2017-05-24T11:36:25.812Z,2728
2017-05-24T11:37:25.870Z,2088
2017-05-24T11:38:25.626Z,1748
2017-05-24T11:39:25.687Z,1888
2017-05-24T11:40:25.738Z,2072
2017-05-24T11:41:26.098Z,2220
2017-05-24T11:42:26.151Z,2140
2017-05-24T11:43:25.906Z,1956
2017-05-24T11:44:26.265Z,1912
2017-05-24T11:45:26.324Z,2568
2017-05-24T11:46:26.379Z,2660
2017-05-24T11:47:26.438Z,2984
2017-05-24T11:48:26.189Z,3840
2017-05-24T11:49:26.247Z,3788
2017-05-24T11:50:26.304Z,3392
2017-05-24T11:51:26.665Z,3356
2017-05-24T11:52:26.721Z,2808
2017-05-24T11:53:26.780Z,2292
2017-05-24T11:54:26.531Z,2212
2017-05-24T11:55:26.887Z,2688
2017-05-24T11:56:26.642Z,3548
2017-05-24T11:57:26.700Z,3476
2017-05-24T11:58:27.058Z,3176
2017-05-24T11:59:27.116Z,2888
2017-05-24T12:00:27.170Z,3112
2017-05-24T12:01:27.229Z,3604
2017-05-24T12:02:27.286Z,3968
2017-05-24T12:03:27.341Z,3520
2017-05-24T12:04:27.397Z,3484
2017-05-24T12:05:27.453Z,3412
2017-05-24T12:06:27.506Z,3320
2017-05-24T12:07:27.562Z,3144
2017-05-24T12:08:27.621Z,2888
2017-05-24T12:09:27.681Z,2676
2017-05-24T12:10:27.735Z,2620
2017-05-24T12:11:27.787Z,2460
2017-05-24T12:12:27.853Z,3528
2017-05-24T12:13:27.909Z,5212
2017-05-24T12:14:27.964Z,6120
2017-05-24T12:15:27.716Z,6116
2017-05-24T12:16:28.077Z,5972
2017-05-24T12:17:28.130Z,5068
2017-05-24T12:18:28.186Z,4928
2017-05-24T12:19:28.255Z,4864
2017-05-24T12:20:28.298Z,4332
2017-05-24T12:21:28.359Z,4184
2017-05-24T12:22:28.417Z,4024
2017-05-24T12:23:28.472Z,3408
2017-05-24T12:24:28.232Z,3168
2017-05-24T12:25:28.276Z,3340
2017-05-24T12:26:28.349Z,3712
2017-05-24T12:27:28.735Z,3312
2017-05-24T12:28:28.454Z,3020
2017-05-24T12:29:28.813Z,3036
2017-05-24T12:30:28.862Z,2564
2017-05-24T12:31:28.919Z,2532
2017-05-24T12:32:28.976Z,2492
2017-05-24T12:33:29.037Z,2388
2017-05-24T12:34:29.092Z,3020
2017-05-24T12:35:29.151Z,3648
2017-05-24T12:36:29.204Z,4320
2017-05-24T12:37:29.259Z,4520
2017-05-24T12:38:29.321Z,4808
2017-05-24T12:39:29.381Z,4152
2017-05-24T12:40:29.128Z,3592
2017-05-24T12:41:29.484Z,3408
2017-05-24T12:42:29.541Z,2788
2017-05-24T12:43:29.602Z,2512
2017-05-24T12:44:29.658Z,3120
2017-05-24T12:45:29.718Z,2832
2017-05-24T12:46:29.768Z,2916
2017-05-24T12:47:29.822Z,3140
2017-05-24T12:48:29.881Z,3044
2017-05-24T12:49:29.939Z,2888
2017-05-24T12:50:29.996Z,2684
2017-05-24T12:51:30.050Z,2912
2017-05-24T12:52:29.802Z,2680
2017-05-24T12:53:30.163Z,2344
2017-05-24T12:54:30.221Z,1980
2017-05-24T12:55:30.274Z,2332
2017-05-24T12:56:30.330Z,2200
2017-05-24T12:57:30.387Z,2008
2017-05-24T12:58:30.443Z,1644
2017-05-24T12:59:30.206Z,1412
2017-05-24T13:00:30.555Z,1780
2017-05-24T13:01:30.622Z,2300
2017-05-24T13:02:30.368Z,2252
2017-05-24T13:03:30.731Z,2096
2017-05-24T13:04:30.781Z,2004
2017-05-24T13:05:30.841Z,1772
2017-05-24T13:06:30.594Z,1484
2017-05-24T13:07:30.648Z,1344
2017-05-24T13:08:31.014Z,1552
2017-05-24T13:09:30.767Z,1868
2017-05-24T13:10:31.117Z,1744
2017-05-24T13:11:31.174Z,1640
2017-05-24T13:12:31.234Z,1604
2017-05-24T13:13:31.291Z,1528
2017-05-24T13:14:31.347Z,1316
2017-05-24T13:15:31.102Z,1204
2017-05-24T13:16:31.460Z,1248
2017-05-24T13:17:31.512Z,1464
2017-05-24T13:18:31.574Z,1516
2017-05-24T13:19:31.626Z,1428
2017-05-24T13:20:31.675Z,1540
2017-05-24T13:21:31.738Z,1496
2017-05-24T13:22:31.791Z,1172
2017-05-24T13:23:31.847Z,1056
2017-05-24T13:24:31.600Z,960
2017-05-24T13:25:31.962Z,1024
2017-05-24T13:26:32.014Z,1032
2017-05-24T13:27:32.083Z,1016
2017-05-24T13:28:32.143Z,924
2017-05-24T13:29:32.183Z,836
2017-05-24T13:30:31.936Z,860
2017-05-24T13:31:32.298Z,844
2017-05-24T13:32:32.357Z,836
2017-05-24T13:33:32.413Z,872
2017-05-24T13:34:32.466Z,928
2017-05-24T13:35:32.230Z,1068
2017-05-24T13:36:32.643Z,1072
2017-05-24T13:37:32.638Z,984
2017-05-24T13:38:32.688Z,928
2017-05-24T13:39:32.750Z,1020
2017-05-24T13:40:32.856Z,1064
2017-05-24T13:41:32.858Z,1056
2017-05-24T13:42:32.910Z,1052
2017-05-24T13:43:32.971Z,1152
2017-05-24T13:44:32.720Z,1112
2017-05-24T13:45:32.778Z,1068
2017-05-24T13:46:33.136Z,1148
2017-05-24T13:47:33.194Z,1092
2017-05-24T13:48:33.248Z,1152